Time;durP1;ratioP1;P1;durP2;ratioP2;P2;SDS_P1;SDS_P2;PMS_P1;PMS_P2;Temp;Humidity;BMP_temperature;BMP_pressure;BME280_temperature;BME280_humidity;BME280_pressure;Samples;Min_cycle;Max_cycle;Signal;HPM_P1;HPM_P2
2022/01/04 00:01:07;;;;;;;;;3.00;2.00;;;;;17.82;60.99;100267.88;5012918;28;8864;-38
2022/01/04 00:03:32;;;;;;;;;3.67;1.67;;;;;17.82;60.75;100259.94;5012067;28;8797;-38
2022/01/04 00:06:00;;;;;;;;;2.00;2.00;;;;;17.82;61.04;100241.47;5012399;28;8797;-38
2022/01/04 00:08:26;;;;;;;;;2.00;2.00;;;;;17.83;60.99;100244.97;5012564;28;8765;-38
2022/01/04 00:10:55;;;;;;;;;1.00;1.00;;;;;17.81;60.77;100239.72;5011761;28;9046;-38
2022/01/04 00:13:22;;;;;;;;;1.67;1.67;;;;;17.79;60.83;100233.59;5012638;28;8774;-38
2022/01/04 00:15:49;;;;;;;;;3.67;2.33;;;;;17.80;60.81;100235.34;5012074;28;9117;-38
2022/01/04 00:18:15;;;;;;;;;1.67;1.67;;;;;17.81;60.72;100225.63;5011992;28;8998;-38
2022/01/04 00:20:40;;;;;;;;;2.00;1.00;;;;;17.78;60.87;100216.00;5012412;28;8952;-38
2022/01/04 00:23:05;;;;;;;;;2.00;2.00;;;;;17.81;60.68;100212.44;5012528;28;9085;-38
2022/01/04 00:25:31;;;;;;;;;2.00;2.00;;;;;17.80;60.79;100208.06;5012043;28;8877;-37
2022/01/04 00:27:57;;;;;;;;;1.00;1.00;;;;;17.80;60.82;100205.44;5012346;28;8790;-38
2022/01/04 00:30:24;;;;;;;;;3.00;2.00;;;;;17.79;60.56;100201.91;5012620;28;8810;-37
2022/01/04 00:32:49;;;;;;;;;3.00;3.00;;;;;17.80;60.59;100195.75;5011629;28;8869;-38
2022/01/04 00:35:14;;;;;;;;;1.67;1.67;;;;;17.80;60.71;100187.81;5012240;28;9185;-38
2022/01/04 00:37:40;;;;;;;;;2.00;2.00;;;;;17.80;60.60;100176.38;5012216;28;8809;-38
2022/01/04 00:40:05;;;;;;;;;1.00;1.00;;;;;17.79;60.86;100178.16;5011435;28;8782;-38
2022/01/04 00:42:31;;;;;;;;;1.67;1.67;;;;;17.80;60.88;100173.75;5012341;28;8889;-37
2022/01/04 00:44:56;;;;;;;;;2.00;2.00;;;;;17.79;60.70;100175.50;5011520;28;8782;-38
2022/01/04 00:47:27;;;;;;;;;2.67;2.67;;;;;17.78;60.60;100159.69;5011442;28;8786;-38
2022/01/04 00:49:53;;;;;;;;;3.00;3.00;;;;;17.78;60.81;100163.19;5011967;28;8844;-37
2022/01/04 00:52:19;;;;;;;;;2.00;2.00;;;;;17.78;60.81;100157.91;5012177;28;9003;-37
2022/01/04 00:54:45;;;;;;;;;3.00;2.00;;;;;17.78;60.75;100160.56;5010785;28;8790;-38
2022/01/04 00:57:11;;;;;;;;;3.33;3.33;;;;;17.78;60.62;100157.91;5012030;28;9132;-39
2022/01/04 00:59:36;;;;;;;;;3.00;3.00;;;;;17.78;60.81;100155.28;5010888;28;9311;-39
2022/01/04 01:02:01;;;;;;;;;2.33;2.33;;;;;17.76;60.48;100158.88;5011410;28;8808;-39
2022/01/04 01:04:26;;;;;;;;;4.67;4.33;;;;;17.77;60.76;100150.06;5011853;28;8820;-38
2022/01/04 01:06:52;;;;;;;;;2.00;2.00;;;;;17.78;60.82;100147.38;5010656;28;8915;-38
2022/01/04 01:09:18;;;;;;;;;3.33;2.00;;;;;17.76;60.53;100145.66;5011897;28;8785;-39
2022/01/04 01:11:43;;;;;;;;;1.33;1.33;;;;;17.74;60.59;100135.13;5011622;28;8783;-37
2022/01/04 01:14:09;;;;;;;;;4.00;4.00;;;;;17.77;60.55;100136.84;5010968;28;9266;-38
2022/01/04 01:16:37;;;;;;;;;3.00;2.00;;;;;17.75;60.60;100131.59;5011284;28;8826;-39
2022/01/04 01:19:02;;;;;;;;;2.00;2.00;;;;;17.75;60.83;100134.22;5011172;28;8786;-38
2022/01/04 01:21:28;;;;;;;;;2.00;2.00;;;;;17.75;60.57;100133.34;5011303;28;9100;-38
2022/01/04 01:23:53;;;;;;;;;3.67;3.00;;;;;17.75;60.44;100136.00;5011261;28;8770;-39
2022/01/04 01:26:18;;;;;;;;;2.00;2.00;;;;;17.75;60.39;100113.09;5011523;28;8770;-38
2022/01/04 01:28:47;;;;;;;;;2.67;2.67;;;;;17.73;60.40;100117.53;5010347;28;9596;-38
2022/01/04 01:31:12;;;;;;;;;3.00;3.00;;;;;17.74;60.52;100119.28;5012006;28;8802;-38
2022/01/04 01:33:37;;;;;;;;;2.67;2.67;;;;;17.74;60.64;100121.91;5011684;28;9165;-38
2022/01/04 01:36:03;;;;;;;;;2.67;2.00;;;;;17.74;60.48;100121.91;5010479;28;9565;-39
2022/01/04 01:38:28;;;;;;;;;2.00;2.00;;;;;17.72;60.47;100109.66;5011598;28;8770;-38
2022/01/04 01:40:56;;;;;;;;;2.00;2.00;;;;;17.73;60.56;100100.84;5011356;28;8765;-38
2022/01/04 01:43:24;;;;;;;;;3.33;3.33;;;;;17.70;60.76;100095.59;5011434;28;8770;-38
2022/01/04 01:45:50;;;;;;;;;5.00;4.67;;;;;17.72;60.45;100096.44;5011338;28;9306;-38
2022/01/04 01:48:16;;;;;;;;;2.67;2.67;;;;;17.73;60.51;100093.75;5011447;28;9161;-38
2022/01/04 01:50:41;;;;;;;;;3.00;2.33;;;;;17.73;60.58;100092.91;5010465;28;9774;-39
2022/01/04 01:53:07;;;;;;;;;2.33;2.33;;;;;17.72;60.35;100086.75;5011370;28;8778;-37
2022/01/04 01:55:32;;;;;;;;;5.00;3.67;;;;;17.71;60.74;100087.66;5011743;28;8794;-38
2022/01/04 01:57:58;;;;;;;;;3.33;3.33;;;;;17.71;60.45;100082.38;5010739;28;9589;-38
2022/01/04 02:00:25;;;;;;;;;4.00;4.00;;;;;17.72;60.56;100080.63;5011677;28;8920;-38
2022/01/04 02:02:51;;;;;;;;;4.33;3.33;;;;;17.70;60.43;100080.63;5010257;28;8785;-37
2022/01/04 02:05:17;;;;;;;;;3.00;3.00;;;;;17.69;60.38;100072.75;5011296;28;9189;-39
2022/01/04 02:07:43;;;;;;;;;3.33;3.00;;;;;17.69;60.27;100063.06;5010960;28;11421;-38
2022/01/04 02:10:09;;;;;;;;;2.00;2.00;;;;;17.69;60.30;100063.06;5010363;28;8766;-38
2022/01/04 02:12:37;;;;;;;;;5.00;3.00;;;;;17.70;60.25;100066.56;5011266;28;9173;-38
2022/01/04 02:15:05;;;;;;;;;3.67;3.67;;;;;17.68;60.35;100056.03;5012111;28;9252;-38
2022/01/04 02:17:34;;;;;;;;;5.00;3.00;;;;;17.68;60.40;100050.75;5013836;28;9232;-38
2022/01/04 02:19:59;;;;;;;;;4.00;3.00;;;;;17.69;60.41;100055.16;5014446;28;9259;-37
2022/01/04 02:22:26;;;;;;;;;5.00;5.00;;;;;17.69;60.12;100046.34;5014512;28;9237;-38
2022/01/04 02:24:52;;;;;;;;;5.00;5.00;;;;;17.69;60.45;100041.09;5014024;28;8860;-38
2022/01/04 02:27:18;;;;;;;;;3.33;3.33;;;;;17.68;60.46;100039.34;5014740;28;9337;-37
2022/01/04 02:29:44;;;;;;;;;5.00;5.00;;;;;17.67;60.62;100038.47;5014220;28;8847;-38
2022/01/04 02:32:16;;;;;;;;;4.00;4.00;;;;;17.66;60.55;100038.47;5014066;28;8909;-37
2022/01/04 02:34:47;;;;;;;;;3.33;3.33;;;;;17.68;60.42;100044.63;5014006;28;9288;-38
2022/01/04 02:37:13;;;;;;;;;3.00;3.00;;;;;17.67;60.41;100033.19;5014607;28;9310;-38
2022/01/04 02:39:38;;;;;;;;;3.33;2.67;;;;;17.66;60.62;100020.88;5013954;28;10022;-37
2022/01/04 02:42:07;;;;;;;;;4.67;3.67;;;;;17.67;60.12;100019.09;5014182;28;8774;-36
2022/01/04 02:44:32;;;;;;;;;4.67;4.00;;;;;17.66;60.44;100015.59;5014335;28;8789;-37
2022/01/04 02:46:58;;;;;;;;;4.00;4.00;;;;;17.67;60.55;100011.19;5013328;28;9339;-38
2022/01/04 02:49:24;;;;;;;;;4.00;4.00;;;;;17.66;60.46;100010.31;5014288;28;8766;-38
2022/01/04 02:51:49;;;;;;;;;5.00;5.00;;;;;17.65;60.33;100011.22;5013893;28;9320;-37
2022/01/04 02:54:14;;;;;;;;;4.00;4.00;;;;;17.65;60.19;99998.03;5013509;28;8762;-38
2022/01/04 02:56:40;;;;;;;;;5.67;4.67;;;;;17.66;60.47;99996.25;5013616;28;8806;-38
2022/01/04 02:59:05;;;;;;;;;4.00;4.00;;;;;17.65;60.06;99995.41;5013698;28;8850;-38
2022/01/04 03:01:31;;;;;;;;;3.67;3.67;;;;;17.66;60.15;99994.47;5013805;28;9596;-38
2022/01/04 03:03:56;;;;;;;;;4.67;4.67;;;;;17.66;60.14;99988.31;5013634;28;8844;-38
2022/01/04 03:06:22;;;;;;;;;3.67;3.67;;;;;17.65;60.19;99984.84;5013033;28;8825;-39
2022/01/04 03:08:47;;;;;;;;;4.00;4.00;;;;;17.65;60.14;99978.69;5013963;28;8780;-39
2022/01/04 03:11:15;;;;;;;;;3.00;3.00;;;;;17.65;60.24;99973.41;5013806;28;8782;-38
2022/01/04 03:13:41;;;;;;;;;3.33;3.33;;;;;17.65;60.37;99970.75;5012862;28;8750;-38
2022/01/04 03:16:06;;;;;;;;;3.00;3.00;;;;;17.65;60.23;99966.34;5013381;28;9329;-37
2022/01/04 03:18:31;;;;;;;;;2.67;2.67;;;;;17.64;60.08;99963.75;5013643;28;8775;-38
2022/01/04 03:20:57;;;;;;;;;3.67;3.67;;;;;17.65;60.07;99968.13;5012660;28;8821;-37
2022/01/04 03:23:22;;;;;;;;;3.25;3.25;;;;;17.64;60.33;99951.41;5013854;28;8790;-38
2022/01/04 03:25:47;;;;;;;;;2.33;2.33;;;;;17.64;59.99;99942.63;5012687;28;8778;-38
2022/01/04 03:28:13;;;;;;;;;4.67;4.67;;;;;17.63;60.24;99941.75;5012952;28;8762;-37
2022/01/04 03:30:39;;;;;;;;;5.33;4.00;;;;;17.64;60.08;99932.94;5013173;28;8848;-38
2022/01/04 03:33:04;;;;;;;;;3.67;3.67;;;;;17.64;60.13;99932.06;5013423;28;9319;-37
2022/01/04 03:35:30;;;;;;;;;4.00;3.00;;;;;17.63;60.11;99923.28;5012741;28;8889;-38
2022/01/04 03:37:55;;;;;;;;;4.00;4.00;;;;;17.62;59.94;99912.75;5013000;28;8794;-38
2022/01/04 03:40:20;;;;;;;;;5.33;4.00;;;;;17.61;60.16;99911.03;5013154;28;9574;-38
2022/01/04 03:42:45;;;;;;;;;4.67;4.67;;;;;17.62;60.11;99910.97;5012309;28;8821;-38
2022/01/04 03:45:11;;;;;;;;;4.25;4.00;;;;;17.61;60.04;99903.97;5013545;28;8774;-37
2022/01/04 03:47:39;;;;;;;;;3.67;3.67;;;;;17.62;60.03;99907.50;5013032;28;8766;-37
2022/01/04 03:50:05;;;;;;;;;3.00;3.00;;;;;17.61;60.19;99897.81;5012613;28;8762;-37
2022/01/04 03:52:30;;;;;;;;;5.00;4.00;;;;;17.62;60.00;99894.28;5013031;28;9248;-38
2022/01/04 03:54:55;;;;;;;;;3.67;3.67;;;;;17.61;60.32;99889.91;5012804;28;8794;-38
2022/01/04 03:57:21;;;;;;;;;3.00;3.00;;;;;17.59;59.88;99882.00;5012154;28;8828;-38
2022/01/04 03:59:46;;;;;;;;;6.00;5.75;;;;;17.61;59.99;99880.22;5012650;28;8793;-38
2022/01/04 04:02:15;;;;;;;;;3.75;3.75;;;;;17.59;59.90;99870.56;5012860;28;8796;-37
2022/01/04 04:04:40;;;;;;;;;6.00;5.25;;;;;17.59;59.91;99870.56;5011871;28;8778;-38
2022/01/04 04:07:06;;;;;;;;;3.33;3.00;;;;;17.59;60.21;99871.44;5012803;28;9342;-38
2022/01/04 04:09:34;;;;;;;;;3.00;3.00;;;;;17.59;60.22;99874.09;5012070;28;8782;-38
2022/01/04 04:12:00;;;;;;;;;4.50;4.50;;;;;17.61;60.06;99874.06;5012440;28;8835;-37
2022/01/04 04:14:29;;;;;;;;;5.00;4.67;;;;;17.58;60.10;99861.81;5012422;28;9314;-38
2022/01/04 04:16:54;;;;;;;;;4.67;4.67;;;;;17.58;59.91;99859.19;5011371;28;9257;-39
2022/01/04 04:19:20;;;;;;;;;7.67;6.67;;;;;17.59;60.13;99865.28;5012316;28;9352;-38
2022/01/04 04:21:45;;;;;;;;;9.33;7.00;;;;;17.58;59.65;99868.88;5012344;28;8758;-38
2022/01/04 04:24:10;;;;;;;;;4.00;4.00;;;;;17.58;60.20;99860.94;5011568;28;8774;-38
2022/01/04 04:26:35;;;;;;;;;4.00;4.00;;;;;17.59;59.89;99862.66;5012404;28;8790;-37
2022/01/04 04:29:01;;;;;;;;;6.67;5.33;;;;;17.56;60.05;99858.28;5012017;28;8786;-38
2022/01/04 04:31:26;;;;;;;;;7.00;6.00;;;;;17.57;59.79;99846.88;5011870;28;8789;-39
2022/01/04 04:33:51;;;;;;;;;4.67;4.67;;;;;17.57;59.80;99849.50;5012090;28;8812;-38
2022/01/04 04:36:16;;;;;;;;;4.67;4.67;;;;;17.57;59.99;99844.22;5012288;28;8806;-39
2022/01/04 04:38:42;;;;;;;;;5.33;5.33;;;;;17.57;59.90;99841.59;5010726;28;8777;-38
2022/01/04 04:41:10;;;;;;;;;4.00;3.00;;;;;17.58;60.09;99837.19;5012309;28;8901;-37
2022/01/04 04:43:35;;;;;;;;;6.00;6.00;;;;;17.57;59.84;99824.88;5012202;28;8755;-39
2022/01/04 04:46:04;;;;;;;;;3.67;2.00;;;;;17.56;59.86;99825.75;5011177;28;9240;-38
2022/01/04 04:48:29;;;;;;;;;4.67;4.67;;;;;17.57;60.07;99827.53;5012171;28;8773;-38
2022/01/04 04:50:55;;;;;;;;;5.00;5.00;;;;;17.56;59.77;99815.19;5011532;28;9178;-38
2022/01/04 04:53:20;;;;;;;;;7.67;6.33;;;;;17.55;59.94;99826.66;5011331;28;8778;-38
2022/01/04 04:55:45;;;;;;;;;3.00;3.00;;;;;17.55;60.07;99827.50;5011526;28;8868;-38
2022/01/04 04:58:14;;;;;;;;;4.33;4.33;;;;;17.57;59.83;99809.06;5012050;28;8780;-38
2022/01/04 05:00:39;;;;;;;;;5.00;5.00;;;;;17.56;60.01;99823.09;5010910;28;8824;-38
2022/01/04 05:03:05;;;;;;;;;6.67;4.67;;;;;17.55;59.76;99810.81;5011956;28;9107;-38
2022/01/04 05:05:33;;;;;;;;;4.67;4.67;;;;;17.56;59.74;99807.28;5011946;28;8766;-39
2022/01/04 05:07:58;;;;;;;;;5.33;5.00;;;;;17.55;59.75;99818.72;5010853;28;8793;-38
2022/01/04 05:10:23;;;;;;;;;5.67;5.33;;;;;17.55;59.90;99801.13;5011538;28;9101;-38
2022/01/04 05:12:48;;;;;;;;;6.33;6.33;;;;;17.54;60.00;99790.63;5010798;28;8793;-37
2022/01/04 05:15:14;;;;;;;;;5.67;5.67;;;;;17.53;59.86;99792.38;5011547;28;8810;-37
2022/01/04 05:17:39;;;;;;;;;6.33;5.00;;;;;17.53;59.62;99795.03;5011338;28;8778;-39
2022/01/04 05:20:05;;;;;;;;;9.67;7.33;;;;;17.53;59.85;99786.25;5011079;28;8790;-37
2022/01/04 05:22:30;;;;;;;;;7.25;5.75;;;;;17.52;59.56;99785.38;5011682;28;8778;-38
2022/01/04 05:24:56;;;;;;;;;6.00;6.00;;;;;17.50;60.07;99781.91;5011342;28;8931;-38
2022/01/04 05:27:21;;;;;;;;;4.75;4.75;;;;;17.52;59.77;99787.13;5010674;28;9514;-38
2022/01/04 05:29:46;;;;;;;;;6.00;6.00;;;;;17.52;59.83;99790.66;5011054;28;8778;-37
2022/01/04 05:32:11;;;;;;;;;6.00;6.00;;;;;17.53;59.70;99788.88;5011566;28;8801;-37
2022/01/04 05:34:37;;;;;;;;;6.25;6.25;;;;;17.51;59.83;99773.06;5010569;28;8778;-38
2022/01/04 05:37:02;;;;;;;;;6.00;6.00;;;;;17.51;59.67;99778.34;5010856;28;9042;-38
2022/01/04 05:39:28;;;;;;;;;6.00;6.00;;;;;17.51;59.90;99785.44;5011467;28;8880;-38
2022/01/04 05:41:53;;;;;;;;;4.00;4.00;;;;;17.51;59.48;99773.06;5010530;28;8777;-37
2022/01/04 05:44:18;;;;;;;;;4.75;4.75;;;;;17.50;59.46;99778.41;5011409;28;8861;-39
2022/01/04 05:46:44;;;;;;;;;3.67;3.67;;;;;17.51;59.86;99782.78;5011194;28;8802;-39
2022/01/04 05:49:09;;;;;;;;;4.00;4.00;;;;;17.50;59.62;99787.19;5012269;28;8793;-38
2022/01/04 05:51:34;;;;;;;;;4.00;4.00;;;;;17.50;59.65;99779.28;5015180;28;8797;-38
2022/01/04 05:54:02;;;;;;;;;5.75;5.75;;;;;17.50;59.76;99776.63;5014987;28;8784;-38
2022/01/04 05:56:28;;;;;;;;;7.25;6.75;;;;;17.49;59.86;99769.63;5014590;28;8856;-38
2022/01/04 05:58:53;;;;;;;;;6.50;6.00;;;;;17.50;59.83;99767.84;5014591;28;9319;-38
2022/01/04 06:01:18;;;;;;;;;7.00;6.25;;;;;17.50;59.86;99768.72;5015083;28;8879;-38
2022/01/04 06:03:46;;;;;;;;;6.50;6.50;;;;;17.49;59.87;99769.63;5014252;28;8766;-38
2022/01/04 06:06:11;;;;;;;;;5.00;5.00;;;;;17.49;59.81;99761.69;5015452;28;8794;-38
2022/01/04 06:08:37;;;;;;;;;5.00;5.00;;;;;17.49;59.78;99766.09;5015063;28;9330;-37
2022/01/04 06:11:08;;;;;;;;;6.75;6.00;;;;;17.49;59.80;99758.19;5013987;28;8782;-37
2022/01/04 06:16:17;;;;;;;;;6.00;6.00;;;;;17.49;59.71;99763.47;5013718;28;9550;-38
2022/01/04 06:18:42;;;;;;;;;7.00;7.00;;;;;17.48;59.56;99759.09;5014543;28;9524;-38
2022/01/04 06:21:14;;;;;;;;;6.75;6.75;;;;;17.47;59.77;99758.22;5014589;28;8766;-38
2022/01/04 06:23:39;;;;;;;;;7.25;6.75;;;;;17.48;59.39;99759.09;5013864;28;8819;-37
2022/01/04 06:26:05;;;;;;;;;4.67;4.67;;;;;17.47;59.33;99760.84;5014670;28;9332;-37
2022/01/04 06:28:34;;;;;;;;;8.00;7.00;;;;;17.48;59.62;99756.44;5014712;28;8778;-38
2022/01/04 06:30:59;;;;;;;;;7.25;6.25;;;;;17.46;59.61;99751.22;5013679;28;8781;-38
2022/01/04 06:33:24;;;;;;;;;5.00;5.00;;;;;17.48;59.38;99748.53;5014470;28;9416;-38
2022/01/04 06:35:50;;;;;;;;;8.00;7.25;;;;;17.46;59.74;99742.44;5014277;28;8831;-39
2022/01/04 06:38:16;;;;;;;;;6.25;6.25;;;;;17.46;59.80;99732.75;5013441;28;8800;-38
2022/01/04 06:40:41;;;;;;;;;7.75;6.50;;;;;17.46;59.59;99718.69;5013839;28;8808;-38
2022/01/04 06:43:07;;;;;;;;;5.25;5.25;;;;;17.46;59.53;99721.31;5014490;28;8797;-38
2022/01/04 06:45:32;;;;;;;;;5.00;5.00;;;;;17.45;59.67;99715.19;5013905;28;8824;-38
2022/01/04 06:47:57;;;;;;;;;5.33;5.33;;;;;17.45;59.73;99707.25;5014171;28;8782;-39
2022/01/04 06:50:23;;;;;;;;;4.33;4.33;;;;;17.46;59.54;99710.75;5014526;28;8778;-38
2022/01/04 06:52:49;;;;;;;;;5.00;5.00;;;;;17.45;59.55;99716.94;5013482;28;8774;-38
2022/01/04 06:55:15;;;;;;;;;6.00;6.00;;;;;17.46;59.50;99716.91;5014380;28;9471;-38
2022/01/04 06:57:43;;;;;;;;;5.00;5.00;;;;;17.47;59.66;99730.97;5013837;28;8802;-39
2022/01/04 07:00:10;;;;;;;;;6.00;6.00;;;;;17.44;59.67;99718.72;5012787;28;8766;-37
2022/01/04 07:02:35;;;;;;;;;6.00;6.00;;;;;17.45;59.55;99709.91;5013586;28;9403;-38
2022/01/04 07:05:04;;;;;;;;;5.00;5.00;;;;;17.44;59.69;99697.59;5013538;28;9325;-38
2022/01/04 07:07:29;;;;;;;;;5.67;5.67;;;;;17.44;59.42;99694.09;5013261;28;8778;-38
2022/01/04 07:09:54;;;;;;;;;6.00;6.00;;;;;17.43;59.57;99700.28;5013660;28;9251;-38
2022/01/04 07:12:20;;;;;;;;;6.00;6.00;;;;;17.42;59.60;99682.72;5013092;28;9502;-38
2022/01/04 07:14:45;;;;;;;;;5.00;5.00;;;;;17.43;59.61;99681.81;5013433;28;8797;-37
2022/01/04 07:17:10;;;;;;;;;4.33;4.33;;;;;17.42;59.40;99680.94;5013867;28;8924;-38
2022/01/04 07:19:37;;;;;;;;;6.25;5.25;;;;;17.41;59.50;99684.47;5012841;28;8778;-38
2022/01/04 07:22:04;;;;;;;;;6.00;6.00;;;;;17.38;59.99;99685.44;5013595;28;8802;-39
2022/01/04 07:24:29;;;;;;;;;4.33;4.33;;;;;17.40;60.21;99686.25;5013543;28;9477;-39
2022/01/04 07:26:54;;;;;;;;;6.50;6.50;;;;;17.42;60.88;99683.59;5012274;28;9330;-38
2022/01/04 07:29:26;;;;;;;;;7.50;7.25;;;;;17.45;60.60;99695.84;5013583;28;8782;-39
2022/01/04 07:31:54;;;;;;;;;5.00;5.00;;;;;17.46;61.85;99687.88;5013393;28;8762;-38
2022/01/04 07:34:20;;;;;;;;;5.00;5.00;;;;;17.49;61.69;99686.94;5012641;28;9423;-38
2022/01/04 07:36:45;;;;;;;;;9.25;9.00;;;;;17.52;62.66;99698.28;5012924;28;9283;-38
2022/01/04 07:39:10;;;;;;;;;9.33;6.67;;;;;17.54;62.74;99712.31;5013232;28;8774;-38
2022/01/04 07:41:35;;;;;;;;;5.75;5.75;;;;;17.65;63.00;99705.03;5012693;28;8774;-38
2022/01/04 07:44:01;;;;;;;;;7.50;6.75;;;;;17.75;63.38;99703.88;5013527;28;8797;-37
2022/01/04 07:46:27;;;;;;;;;9.00;8.00;;;;;17.79;63.05;99707.31;5006409;28;8817;-37
2022/01/04 07:48:52;;;;;;;;;7.00;6.75;;;;;17.81;63.11;99695.78;5011974;28;8798;-38
2022/01/04 07:51:18;;;;;;;;;7.50;7.50;;;;;17.81;63.00;99687.88;5012208;28;9470;-37
2022/01/04 07:53:43;;;;;;;;;7.25;7.25;;;;;17.82;62.88;99683.47;5012131;28;8777;-37
2022/01/04 07:56:09;;;;;;;;;8.00;8.00;;;;;17.83;62.75;99696.63;5010317;28;8797;-37
2022/01/04 07:58:34;;;;;;;;;8.50;8.00;;;;;17.83;62.87;99703.69;5012074;28;8849;-38
2022/01/04 08:00:59;;;;;;;;;7.50;7.00;;;;;17.83;63.17;99698.41;5011741;28;8794;-38
2022/01/04 08:03:25;;;;;;;;;8.00;7.25;;;;;17.84;62.76;99698.38;5012117;28;8770;-38
2022/01/04 08:05:50;;;;;;;;;6.50;6.50;;;;;17.81;62.92;99703.72;5012292;28;9500;-37
2022/01/04 08:08:15;;;;;;;;;6.33;6.33;;;;;17.74;62.99;99699.50;5012290;28;8766;-37
2022/01/04 08:10:40;;;;;;;;;7.75;7.75;;;;;17.68;63.07;99702.31;5011522;28;8888;-37
2022/01/04 08:13:06;;;;;;;;;14.50;12.25;;;;;17.63;62.62;99711.22;5012126;28;8758;-37
2022/01/04 08:15:31;;;;;;;;;12.00;10.00;;;;;17.54;61.82;99696.50;5012059;28;8812;-37
2022/01/04 08:17:57;;;;;;;;;9.00;9.00;;;;;17.49;61.45;99702.78;5011405;28;8860;-38
2022/01/04 08:20:22;;;;;;;;;15.75;11.00;;;;;17.44;60.81;99713.44;5012490;28;8794;-38
2022/01/04 08:23:08;;;;;;;;;12.50;10.75;;;;;17.40;61.59;99722.31;5010881;28;8770;-36
2022/01/04 08:25:37;;;;;;;;;8.75;8.00;;;;;17.40;61.85;99728.47;5011898;28;8833;-37
2022/01/04 08:28:04;;;;;;;;;8.75;8.75;;;;;17.43;62.23;99732.81;5010491;28;9501;-36
2022/01/04 08:30:29;;;;;;;;;10.75;9.25;;;;;17.46;62.44;99732.75;5011532;28;9512;-36
2022/01/04 08:32:54;;;;;;;;;12.00;10.00;;;;;17.47;63.12;99731.81;5026765;28;9585;-37
2022/01/04 08:35:23;;;;;;;;;9.75;8.50;;;;;17.50;63.02;99739.69;5031787;28;8764;-37
2022/01/04 08:37:49;;;;;;;;;8.00;7.00;;;;;17.52;63.51;99726.44;5030864;28;8909;-37
2022/01/04 08:40:14;;;;;;;;;7.00;6.00;;;;;17.54;63.82;99735.19;5031748;28;10384;-36
2022/01/04 08:42:39;;;;;;;;;7.25;6.75;;;;;17.55;64.05;99745.69;5030985;28;8795;-36
2022/01/04 08:45:07;;;;;;;;;6.75;6.75;;;;;17.59;63.72;99757.94;5030920;28;8776;-36
2022/01/04 08:47:32;;;;;;;;;9.50;8.50;;;;;17.77;62.80;99756.66;5010795;28;8825;-36
2022/01/04 08:49:58;;;;;;;;;8.75;8.75;;;;;17.93;62.48;99762.38;5010608;28;9571;-36
2022/01/04 08:52:25;;;;;;;;;9.00;7.50;;;;;18.01;62.46;99760.44;5009156;28;8790;-36
2022/01/04 08:54:50;;;;;;;;;10.50;7.25;;;;;18.11;62.10;99754.00;5010298;28;8782;-35
2022/01/04 08:57:15;;;;;;;;;8.25;8.25;;;;;18.14;62.02;99752.16;5010835;28;9737;-36
2022/01/04 08:59:41;;;;;;;;;9.50;8.50;;;;;18.17;62.23;99745.91;5016890;28;8814;-37
2022/01/04 09:02:06;;;;;;;;;9.00;7.00;;;;;18.13;62.35;99749.53;5031274;28;8792;-35
2022/01/04 09:04:31;;;;;;;;;9.50;8.00;;;;;18.09;62.94;99748.75;5012919;28;8809;-37
2022/01/04 09:06:57;;;;;;;;;6.00;6.00;;;;;18.09;62.80;99745.25;5010329;28;8790;-38
2022/01/04 09:09:22;;;;;;;;;7.75;6.75;;;;;18.07;62.68;99745.28;5011042;28;8813;-37
2022/01/04 09:11:47;;;;;;;;;7.50;7.00;;;;;18.08;63.04;99743.50;5008849;28;8798;-37
2022/01/04 09:14:24;;;;;;;;;6.00;5.50;;;;;18.08;63.23;99739.09;5010016;28;8863;-36
2022/01/04 09:19:33;;;;;;;;;5.25;5.25;;;;;18.06;62.83;99738.28;5010498;28;9515;-37
2022/01/04 09:21:59;;;;;;;;;6.75;6.75;;;;;18.09;62.77;99745.25;5010935;28;9435;-37
2022/01/04 09:24:24;;;;;;;;;6.25;6.25;;;;;18.09;63.01;99737.31;5010748;28;9534;-37
2022/01/04 09:26:50;;;;;;;;;7.25;6.75;;;;;18.09;62.97;99747.88;5009559;28;8798;-37
2022/01/04 09:29:19;;;;;;;;;5.00;5.00;;;;;18.11;63.00;99746.94;5011338;28;8839;-36
2022/01/04 09:31:49;;;;;;;;;5.00;5.00;;;;;18.13;62.91;99741.63;5010990;28;9513;-36
2022/01/04 09:34:15;;;;;;;;;6.25;5.50;;;;;18.12;62.93;99740.75;5010548;28;9373;-37
2022/01/04 09:36:41;;;;;;;;;6.00;6.00;;;;;18.13;63.04;99749.53;5009207;28;9618;-37
2022/01/04 09:39:11;;;;;;;;;5.25;5.25;;;;;18.16;62.81;99754.75;5011190;28;8793;-37
2022/01/04 09:41:36;;;;;;;;;4.75;4.75;;;;;18.14;62.85;99738.06;5009572;28;8798;-38
2022/01/04 09:44:03;;;;;;;;;5.00;5.00;;;;;18.15;63.16;99739.78;5010719;28;9448;-38
2022/01/04 09:46:29;;;;;;;;;6.00;5.00;;;;;18.14;62.97;99743.38;5010961;28;8786;-36
2022/01/04 09:48:55;;;;;;;;;7.75;6.25;;;;;18.15;62.88;99742.44;5009947;28;9333;-37
2022/01/04 09:51:20;;;;;;;;;4.67;4.67;;;;;18.17;62.96;99745.91;5009493;28;8793;-36
2022/01/04 09:53:45;;;;;;;;;4.00;4.00;;;;;18.17;62.87;99745.91;5010092;28;9342;-39
2022/01/04 09:56:11;;;;;;;;;6.00;5.00;;;;;18.17;63.00;99757.34;5010184;28;8885;-36
2022/01/04 09:58:36;;;;;;;;;4.75;4.00;;;;;18.17;62.91;99757.34;5010691;28;9589;-37
2022/01/04 10:01:03;;;;;;;;;5.00;4.00;;;;;18.17;62.96;99746.78;5009237;28;8824;-40
2022/01/04 10:03:30;;;;;;;;;6.00;6.00;;;;;18.19;62.81;99746.72;5010431;28;8785;-36
2022/01/04 10:06:07;;;;;;;;;5.00;5.00;;;;;18.19;63.07;99747.59;5010498;28;9444;-36
2022/01/04 10:08:32;;;;;;;;;5.00;4.00;;;;;18.19;62.95;99749.38;5009643;28;9413;-36
2022/01/04 10:11:08;;;;;;;;;4.25;3.50;;;;;18.20;62.67;99753.75;5009065;28;9592;-37
2022/01/04 10:13:33;;;;;;;;;5.33;5.00;;;;;18.19;62.80;99749.38;5010676;28;8786;-37
2022/01/04 10:16:03;;;;;;;;;4.25;4.25;;;;;18.19;62.64;99744.97;5009545;28;9317;-36
2022/01/04 10:18:29;;;;;;;;;4.25;4.25;;;;;18.19;62.68;99746.72;5010626;28;8897;-36
2022/01/04 10:21:02;;;;;;;;;6.25;5.00;;;;;18.20;62.95;99743.19;5009048;28;9502;-36
2022/01/04 10:23:29;;;;;;;;;4.00;4.00;;;;;18.20;62.70;99744.06;5009244;28;8816;-36
2022/01/04 10:26:05;;;;;;;;;7.25;5.00;;;;;18.21;63.02;99752.84;5009895;28;9549;-36
2022/01/04 10:28:34;;;;;;;;;4.50;4.50;;;;;18.21;62.72;99745.78;5010517;28;9420;-38
2022/01/04 10:31:05;;;;;;;;;5.50;4.75;;;;;18.23;62.68;99751.91;5020052;28;10130;-39
2022/01/04 10:33:31;;;;;;;;;4.00;4.00;;;;;18.25;62.59;99744.81;5010576;28;9404;-38
2022/01/04 10:35:59;;;;;;;;;4.00;4.00;;;;;18.26;62.65;99748.28;5011406;28;9361;-37
2022/01/04 10:38:35;;;;;;;;;3.00;3.00;;;;;18.25;62.74;99736.88;5012599;28;10283;-37
2022/01/04 10:41:20;;;;;;;;;3.00;3.00;;;;;18.25;62.74;99744.81;5012363;28;9499;-37
2022/01/04 10:44:03;;;;;;;;;5.00;4.00;;;;;18.24;62.57;99744.84;5012834;28;9503;-37
2022/01/04 10:46:38;;;;;;;;;4.00;3.00;;;;;18.23;62.68;99748.38;5014094;28;9384;-37
2022/01/04 10:49:15;;;;;;;;;4.75;3.75;;;;;18.25;62.25;99765.94;5013221;28;9419;-38
2022/01/04 10:51:41;;;;;;;;;3.33;3.33;;;;;18.27;62.22;99750.91;5011958;28;9504;-38
2022/01/04 10:54:06;;;;;;;;;4.00;4.00;;;;;18.27;61.92;99760.59;5014033;28;9293;-38
2022/01/04 10:56:38;;;;;;;;;2.00;2.00;;;;;18.26;62.05;99759.72;5023079;28;10532;-37
2022/01/04 10:59:08;;;;;;;;;3.00;2.33;;;;;18.27;61.65;99760.59;5030902;28;8903;-36
2022/01/04 11:01:44;;;;;;;;;3.00;1.67;;;;;18.39;61.28;99770.84;5033078;28;9278;-37
2022/01/04 11:04:15;;;;;;;;;2.33;2.33;;;;;18.41;61.58;99770.81;5033074;28;9165;-37
2022/01/04 11:06:41;;;;;;;;;3.00;2.00;;;;;18.39;61.49;99769.97;5031909;28;9318;-37
2022/01/04 11:09:09;;;;;;;;;1.67;1.67;;;;;18.34;61.20;99778.88;5032112;28;9286;-38
2022/01/04 11:11:34;;;;;;;;;4.67;2.00;;;;;18.31;61.42;99778.97;5032763;28;9214;-37
2022/01/04 11:14:00;;;;;;;;;2.33;2.33;;;;;18.29;61.56;99783.44;5039457;28;9285;-37
2022/01/04 11:16:27;;;;;;;;;3.00;3.00;;;;;18.28;61.68;99778.19;5052943;28;8876;-37
2022/01/04 11:18:54;;;;;;;;;3.67;3.67;;;;;18.28;61.31;99786.13;5052232;28;11377;-38
2022/01/04 11:21:24;;;;;;;;;2.00;2.00;;;;;18.29;61.10;99788.75;5052795;28;9165;-37
2022/01/04 11:23:50;;;;;;;;;2.00;2.00;;;;;18.30;61.14;99794.88;5034505;28;9231;-38
2022/01/04 11:26:17;;;;;;;;;2.00;2.00;;;;;18.26;61.24;99796.72;5031810;28;9108;-38
2022/01/04 11:28:45;;;;;;;;;2.00;2.00;;;;;18.26;61.33;99788.78;5048796;28;9189;-38
2022/01/04 11:31:32;;;;;;;;;3.67;2.67;;;;;18.28;61.69;99797.56;5053214;28;10127;-38
2022/01/04 11:34:06;;;;;;;;;2.00;2.00;;;;;18.27;61.38;99805.50;5050936;28;9202;-38
2022/01/04 11:36:44;;;;;;;;;3.00;3.00;;;;;18.24;61.54;99797.69;5052878;28;9205;-37
2022/01/04 11:39:29;;;;;;;;;3.00;3.00;;;;;18.23;61.57;99804.72;5052724;28;9167;-37
2022/01/04 11:41:56;;;;;;;;;2.67;2.00;;;;;18.24;61.13;99808.25;5051379;28;9992;-37